createdAt,value
2023-05-23T00:01:07.245Z,21.47
2023-05-23T00:03:35.496Z,21.48
2023-05-23T00:06:02.567Z,21.46
2023-05-23T00:08:29.008Z,21.45
2023-05-23T00:10:55.537Z,21.44
2023-05-23T00:13:22.225Z,21.42
2023-05-23T00:15:48.966Z,21.43
2023-05-23T00:18:16.417Z,21.42
2023-05-23T00:20:43.446Z,21.45
2023-05-23T00:23:11.012Z,21.46
2023-05-23T00:25:38.319Z,21.48
2023-05-23T00:28:05.434Z,21.48
2023-05-23T00:30:34.121Z,21.49
2023-05-23T00:33:01.353Z,21.50
2023-05-23T00:35:28.075Z,21.49
2023-05-23T00:37:55.753Z,21.49
2023-05-23T00:40:23.437Z,21.48
2023-05-23T00:42:49.918Z,21.48
2023-05-23T00:45:17.322Z,21.48
2023-05-23T00:47:45.838Z,21.48
2023-05-23T00:50:12.951Z,21.50
2023-05-23T00:52:39.532Z,21.57
2023-05-23T00:55:06.874Z,21.58
2023-05-23T00:57:40.575Z,21.58
2023-05-23T01:00:13.666Z,21.57
2023-05-23T01:02:51.396Z,21.53
2023-05-23T01:05:20.955Z,21.55
2023-05-23T01:07:49.314Z,21.51
2023-05-23T01:10:20.387Z,21.47
2023-05-23T01:12:57.974Z,21.39
2023-05-23T01:15:33.268Z,21.37
2023-05-23T01:18:10.972Z,21.32
2023-05-23T01:20:46.013Z,21.27
2023-05-23T01:23:47.459Z,21.20
2023-05-23T01:26:19.624Z,21.21
2023-05-23T01:28:50.258Z,21.17
2023-05-23T01:31:18.666Z,21.16
2023-05-23T01:33:46.559Z,21.12
2023-05-23T01:36:15.198Z,21.09
2023-05-23T01:38:41.752Z,21.08
2023-05-23T01:41:08.456Z,21.10
2023-05-23T01:43:34.960Z,21.07
2023-05-23T01:46:03.013Z,21.03
2023-05-23T01:48:31.230Z,20.99
2023-05-23T01:50:58.986Z,20.97
2023-05-23T01:53:26.492Z,20.96
2023-05-23T01:55:53.038Z,20.95
2023-05-23T01:58:19.764Z,20.95
2023-05-23T02:00:46.613Z,20.95
2023-05-23T02:03:13.337Z,20.95
2023-05-23T02:05:40.365Z,20.94
2023-05-23T02:08:07.272Z,20.94
2023-05-23T02:10:33.982Z,20.94
2023-05-23T02:13:00.460Z,20.93
2023-05-23T02:15:27.136Z,20.93
2023-05-23T02:17:53.838Z,20.94
2023-05-23T02:20:20.463Z,20.94
2023-05-23T02:22:46.832Z,20.93
2023-05-23T02:25:13.242Z,20.94
2023-05-23T02:27:39.940Z,20.95
2023-05-23T02:30:09.238Z,20.98
2023-05-23T02:32:37.579Z,21.00
2023-05-23T02:35:04.388Z,21.03
2023-05-23T02:37:30.740Z,21.08
2023-05-23T02:39:57.218Z,21.06
2023-05-23T02:42:23.846Z,21.04
2023-05-23T02:44:50.338Z,21.04
2023-05-23T02:47:16.733Z,21.03
2023-05-23T02:49:43.316Z,21.03
2023-05-23T02:52:09.937Z,21.04
2023-05-23T02:54:36.335Z,21.03
2023-05-23T02:57:02.784Z,21.04
2023-05-23T02:59:29.148Z,21.03
2023-05-23T03:01:55.828Z,21.03
2023-05-23T03:04:23.995Z,21.03
2023-05-23T03:06:54.447Z,21.07
2023-05-23T03:09:21.618Z,21.08
2023-05-23T03:11:48.447Z,21.08
2023-05-23T03:14:15.076Z,21.08
2023-05-23T03:16:41.969Z,21.07
2023-05-23T03:19:08.736Z,21.07
2023-05-23T03:21:35.718Z,21.05
2023-05-23T03:24:02.341Z,21.05
2023-05-23T03:26:28.987Z,21.04
2023-05-23T03:28:56.242Z,21.04
2023-05-23T03:31:22.954Z,21.05
2023-05-23T03:33:49.575Z,21.06
2023-05-23T03:36:16.232Z,21.05
2023-05-23T03:38:42.868Z,21.07
2023-05-23T03:41:09.556Z,21.07
2023-05-23T03:43:36.462Z,21.08
2023-05-23T03:46:03.162Z,21.07
2023-05-23T03:48:30.654Z,21.06
2023-05-23T03:50:57.209Z,21.04
2023-05-23T03:53:23.809Z,21.02
2023-05-23T03:55:50.799Z,21.03
2023-05-23T03:58:17.484Z,21.03
2023-05-23T04:00:44.367Z,21.03
2023-05-23T04:03:12.169Z,21.03
2023-05-23T04:05:38.879Z,21.04
2023-05-23T04:08:07.155Z,21.03
2023-05-23T04:10:33.729Z,21.03
2023-05-23T04:13:00.310Z,21.04
2023-05-23T04:15:28.175Z,21.04
2023-05-23T04:17:55.122Z,21.04
2023-05-23T04:22:49.502Z,21.01
2023-05-23T04:25:18.801Z,20.96
2023-05-23T04:27:45.290Z,20.92
2023-05-23T04:30:12.441Z,20.89
2023-05-23T04:32:39.016Z,20.84
2023-05-23T04:35:05.885Z,20.82
2023-05-23T04:37:33.296Z,20.81
2023-05-23T04:40:03.207Z,20.78
2023-05-23T04:42:29.770Z,20.75
2023-05-23T04:44:59.042Z,20.73
2023-05-23T04:47:28.015Z,20.72
2023-05-23T04:49:56.040Z,20.70
2023-05-23T04:52:22.813Z,20.71
2023-05-23T04:54:49.650Z,20.70
2023-05-23T04:57:16.925Z,20.69
2023-05-23T04:59:43.404Z,20.66
2023-05-23T05:02:09.765Z,20.67
2023-05-23T05:04:36.637Z,20.66
2023-05-23T05:07:04.508Z,20.66
2023-05-23T05:09:31.526Z,20.66
2023-05-23T05:11:59.268Z,20.67
2023-05-23T05:14:27.408Z,20.69
2023-05-23T05:16:57.885Z,20.69
2023-05-23T05:19:25.323Z,20.69
2023-05-23T05:21:52.438Z,20.69
2023-05-23T05:24:21.045Z,20.70
2023-05-23T05:26:48.365Z,20.70
2023-05-23T05:29:15.119Z,20.74
2023-05-23T05:31:41.694Z,20.72
2023-05-23T05:34:08.134Z,20.69
2023-05-23T05:36:34.826Z,20.68
2023-05-23T05:39:01.237Z,20.66
2023-05-23T05:41:27.884Z,20.64
2023-05-23T05:43:54.320Z,20.62
2023-05-23T05:46:21.029Z,20.61
2023-05-23T05:48:47.550Z,20.61
2023-05-23T05:51:13.950Z,20.61
2023-05-23T05:53:40.401Z,20.62
2023-05-23T05:56:09.125Z,20.61
2023-05-23T05:58:35.852Z,20.62
2023-05-23T06:01:02.329Z,20.61
2023-05-23T06:03:28.928Z,20.60
2023-05-23T06:05:55.797Z,20.59
2023-05-23T06:08:22.386Z,20.59
2023-05-23T06:10:48.825Z,20.60
2023-05-23T06:13:15.499Z,20.62
2023-05-23T06:15:41.885Z,20.65
2023-05-23T06:18:08.581Z,20.66
2023-05-23T06:20:35.068Z,20.70
2023-05-23T06:23:01.862Z,20.70
2023-05-23T06:25:28.290Z,20.71
2023-05-23T06:27:55.712Z,20.72
2023-05-23T06:30:23.165Z,20.73
2023-05-23T06:32:49.902Z,20.74
2023-05-23T06:35:17.922Z,20.73
2023-05-23T06:37:45.780Z,20.71
2023-05-23T06:40:14.638Z,20.73
2023-05-23T06:42:41.696Z,20.71
2023-05-23T06:45:08.698Z,20.70
2023-05-23T06:47:35.443Z,20.69
2023-05-23T06:50:03.060Z,20.66
2023-05-23T06:52:29.485Z,20.64
2023-05-23T06:54:56.137Z,20.62
2023-05-23T06:57:22.630Z,20.59
2023-05-23T06:59:49.522Z,20.53
2023-05-23T07:02:16.007Z,20.52
2023-05-23T07:04:42.488Z,20.49
2023-05-23T07:07:10.098Z,20.47
2023-05-23T07:09:38.631Z,20.46
2023-05-23T07:12:05.392Z,20.46
2023-05-23T07:14:32.040Z,20.48
2023-05-23T07:16:58.543Z,20.46
2023-05-23T07:19:25.068Z,20.45
2023-05-23T07:21:51.751Z,20.42
2023-05-23T07:24:19.325Z,20.42
2023-05-23T07:26:46.138Z,20.42
2023-05-23T07:29:12.557Z,20.40
2023-05-23T07:31:38.999Z,20.39
2023-05-23T07:34:05.715Z,20.39
2023-05-23T07:36:34.188Z,20.38
2023-05-23T07:39:01.588Z,20.37
2023-05-23T07:41:28.042Z,20.35
2023-05-23T07:43:54.533Z,20.34
2023-05-23T07:46:22.958Z,20.34
2023-05-23T07:48:49.584Z,20.34
2023-05-23T07:51:21.183Z,20.35
2023-05-23T07:53:47.667Z,20.36
2023-05-23T07:56:14.368Z,20.35
2023-05-23T07:58:40.873Z,20.34
2023-05-23T08:01:08.294Z,20.34
2023-05-23T08:03:34.898Z,20.33
2023-05-23T08:06:01.489Z,20.32
2023-05-23T08:08:27.902Z,20.31
2023-05-23T08:10:54.456Z,20.30
2023-05-23T08:13:20.931Z,20.29
2023-05-23T08:15:47.588Z,20.28
2023-05-23T08:18:14.601Z,20.29
2023-05-23T08:20:42.476Z,20.29
2023-05-23T08:23:09.576Z,20.30
2023-05-23T08:25:35.962Z,20.31
2023-05-23T08:28:02.362Z,20.33
2023-05-23T08:30:29.404Z,20.33
2023-05-23T08:32:57.159Z,20.33
2023-05-23T08:35:24.519Z,20.33
2023-05-23T08:37:52.215Z,20.33
2023-05-23T08:40:21.311Z,20.32
2023-05-23T08:42:49.242Z,20.31
2023-05-23T08:45:17.028Z,20.32
2023-05-23T08:47:45.346Z,20.30
2023-05-23T08:50:18.106Z,20.28
2023-05-23T08:53:00.682Z,20.26
2023-05-23T08:55:29.159Z,20.27
2023-05-23T08:57:59.253Z,20.28
2023-05-23T09:00:27.264Z,20.26
2023-05-23T09:02:54.828Z,20.26
2023-05-23T09:05:22.016Z,20.26
2023-05-23T09:07:51.277Z,20.27
2023-05-23T09:10:20.639Z,20.25
2023-05-23T09:12:47.378Z,20.24
2023-05-23T09:15:14.736Z,20.25
2023-05-23T09:17:41.374Z,20.24
2023-05-23T09:20:15.287Z,20.23
2023-05-23T09:22:45.853Z,20.23
2023-05-23T09:25:12.319Z,20.22
2023-05-23T09:27:38.934Z,20.20
2023-05-23T09:30:10.890Z,20.16
2023-05-23T09:32:39.091Z,20.12
2023-05-23T09:35:07.709Z,20.09
2023-05-23T09:37:39.571Z,20.06
2023-05-23T09:40:13.633Z,20.03
2023-05-23T09:42:44.476Z,19.94
2023-05-23T09:45:13.898Z,19.89
2023-05-23T09:47:49.258Z,19.82
2023-05-23T09:50:15.640Z,19.80
2023-05-23T09:52:42.295Z,19.78
2023-05-23T09:55:09.261Z,19.75
2023-05-23T09:57:37.865Z,19.73
2023-05-23T10:00:11.262Z,19.74
2023-05-23T10:03:12.404Z,19.74
2023-05-23T10:05:48.202Z,19.73
2023-05-23T10:08:39.174Z,19.70
2023-05-23T10:11:14.536Z,19.69
2023-05-23T10:13:45.930Z,19.68
2023-05-23T10:16:17.120Z,19.67
2023-05-23T10:18:49.038Z,19.66
2023-05-23T10:21:20.928Z,19.63
2023-05-23T10:23:48.352Z,19.63
2023-05-23T10:26:15.946Z,19.62
2023-05-23T10:28:42.801Z,19.60
2023-05-23T10:31:11.748Z,19.60
2023-05-23T10:33:43.924Z,19.59
2023-05-23T10:36:19.336Z,19.61
2023-05-23T10:38:56.061Z,19.62
2023-05-23T10:41:41.561Z,19.61
2023-05-23T10:44:25.313Z,19.62
2023-05-23T10:46:54.229Z,19.66
2023-05-23T10:49:21.553Z,19.65
2023-05-23T10:51:54.190Z,19.62
2023-05-23T10:54:21.353Z,19.62
2023-05-23T10:56:48.475Z,19.63
2023-05-23T10:59:23.294Z,19.63
2023-05-23T11:01:52.798Z,19.68
2023-05-23T11:04:27.559Z,19.71
2023-05-23T11:06:57.617Z,19.78
2023-05-23T11:09:24.218Z,19.85
2023-05-23T11:11:50.664Z,19.92
2023-05-23T11:14:17.031Z,20.02
2023-05-23T11:16:49.316Z,20.10
2023-05-23T11:19:18.845Z,20.18
2023-05-23T11:22:06.019Z,20.23
2023-05-23T11:24:52.371Z,20.32
2023-05-23T11:27:35.734Z,20.37
2023-05-23T11:30:16.158Z,20.41
2023-05-23T11:32:56.198Z,20.45
2023-05-23T11:35:23.240Z,20.47
2023-05-23T11:37:49.995Z,20.48
2023-05-23T11:40:39.614Z,20.46
2023-05-23T11:43:20.076Z,20.49
2023-05-23T11:45:47.022Z,20.56
2023-05-23T11:48:16.703Z,20.58
2023-05-23T11:50:52.243Z,20.58
2023-05-23T11:53:25.929Z,20.60
2023-05-23T11:55:55.468Z,20.61
2023-05-23T11:58:23.686Z,20.59
2023-05-23T12:00:50.078Z,20.59
2023-05-23T12:03:16.648Z,20.56
2023-05-23T12:05:45.259Z,20.52
2023-05-23T12:08:13.820Z,20.52
2023-05-23T12:10:48.653Z,20.54
2023-05-23T12:13:15.104Z,20.58
2023-05-23T12:15:41.826Z,20.58
2023-05-23T12:18:08.908Z,20.58
2023-05-23T12:20:36.156Z,20.59
2023-05-23T12:23:06.211Z,20.60
2023-05-23T12:25:41.944Z,20.63
2023-05-23T12:28:10.696Z,20.71
2023-05-23T12:30:44.269Z,20.74
2023-05-23T12:33:12.218Z,20.79
2023-05-23T12:35:43.489Z,20.81
2023-05-23T12:38:10.023Z,20.84
2023-05-23T12:40:36.642Z,20.86
2023-05-23T12:43:03.089Z,20.86
2023-05-23T12:45:37.057Z,20.86
2023-05-23T12:48:04.337Z,20.92
2023-05-23T12:50:31.477Z,20.98
2023-05-23T12:52:58.835Z,21.04
2023-05-23T12:55:25.319Z,21.11
2023-05-23T12:57:53.038Z,21.18
2023-05-23T13:00:20.380Z,21.23
2023-05-23T13:02:46.903Z,21.27
2023-05-23T13:05:13.631Z,21.33
2023-05-23T13:07:40.357Z,21.37
2023-05-23T13:10:07.365Z,21.42
2023-05-23T13:12:34.717Z,21.45
2023-05-23T13:15:01.466Z,21.48
2023-05-23T13:17:28.022Z,21.51
2023-05-23T13:19:54.733Z,21.57
2023-05-23T13:22:21.182Z,21.61
2023-05-23T13:24:47.936Z,21.67
2023-05-23T13:27:16.271Z,21.72
2023-05-23T13:29:43.112Z,21.78
2023-05-23T13:32:09.768Z,21.81
2023-05-23T13:34:39.456Z,21.87
2023-05-23T13:37:06.055Z,21.95
2023-05-23T13:39:32.497Z,22.01
2023-05-23T13:41:59.180Z,22.06
2023-05-23T13:44:25.961Z,22.11
2023-05-23T13:46:52.419Z,22.15
2023-05-23T13:49:19.076Z,22.18
2023-05-23T13:51:45.566Z,22.21
2023-05-23T13:54:13.215Z,22.24
2023-05-23T13:56:40.383Z,22.26
2023-05-23T13:59:07.056Z,22.27
2023-05-23T14:01:33.573Z,22.27
2023-05-23T14:04:00.413Z,22.26
2023-05-23T14:06:26.899Z,22.27
2023-05-23T14:08:53.507Z,22.26
2023-05-23T14:11:19.905Z,22.28
2023-05-23T14:13:46.338Z,22.28
2023-05-23T14:16:12.839Z,22.28
2023-05-23T14:18:39.294Z,22.27
2023-05-23T14:21:06.145Z,22.27
2023-05-23T14:23:32.683Z,22.26
2023-05-23T14:25:59.462Z,22.24
2023-05-23T14:28:27.475Z,22.24
2023-05-23T14:30:55.502Z,22.25
2023-05-23T14:33:22.281Z,22.26
2023-05-23T14:35:49.351Z,22.27
2023-05-23T14:38:15.767Z,22.27
2023-05-23T14:40:44.087Z,22.29
2023-05-23T14:43:11.466Z,22.30
2023-05-23T14:45:38.323Z,22.32
2023-05-23T14:48:05.824Z,22.33
2023-05-23T14:50:32.461Z,22.37
2023-05-23T14:52:59.678Z,22.42
2023-05-23T14:55:26.282Z,22.43
2023-05-23T14:57:52.685Z,22.45
2023-05-23T15:00:19.545Z,22.47
2023-05-23T15:02:46.627Z,22.46
2023-05-23T15:05:13.196Z,22.44
2023-05-23T15:07:40.266Z,22.42
2023-05-23T15:10:08.549Z,22.42
2023-05-23T15:12:35.041Z,22.44
2023-05-23T15:15:04.701Z,22.46
2023-05-23T15:17:33.762Z,22.47
2023-05-23T15:20:06.037Z,22.51
2023-05-23T15:22:39.347Z,22.54
2023-05-23T15:25:08.010Z,22.54
2023-05-23T15:27:34.521Z,22.55
2023-05-23T15:30:01.841Z,22.52
2023-05-23T15:32:28.640Z,22.52
2023-05-23T15:34:55.123Z,22.52
2023-05-23T15:37:21.582Z,22.51
2023-05-23T15:39:51.316Z,22.53
2023-05-23T15:42:17.668Z,22.54
2023-05-23T15:44:44.349Z,22.59
2023-05-23T15:47:11.223Z,22.60
2023-05-23T15:49:37.826Z,22.61
2023-05-23T15:52:04.506Z,22.57
2023-05-23T15:54:31.109Z,22.52
2023-05-23T15:56:57.535Z,22.48
2023-05-23T15:59:24.205Z,22.43
2023-05-23T16:01:50.678Z,22.37
2023-05-23T16:04:17.263Z,22.33
2023-05-23T16:06:43.832Z,22.29
2023-05-23T16:09:13.300Z,22.26
2023-05-23T16:11:39.962Z,22.23
2023-05-23T16:14:06.628Z,22.21
2023-05-23T16:16:33.098Z,22.19
2023-05-23T16:18:59.948Z,22.16
2023-05-23T16:21:26.493Z,22.12
2023-05-23T16:23:53.135Z,22.10
2023-05-23T16:26:19.857Z,22.07
2023-05-23T16:28:46.402Z,22.05
2023-05-23T16:31:14.990Z,22.05
2023-05-23T16:33:42.089Z,22.04
2023-05-23T16:36:08.854Z,22.07
2023-05-23T16:38:35.564Z,22.07
2023-05-23T16:41:01.986Z,22.07
2023-05-23T16:43:28.631Z,22.07
2023-05-23T16:45:55.083Z,22.06
2023-05-23T16:48:22.305Z,22.04
2023-05-23T16:50:48.879Z,22.04
2023-05-23T16:53:15.592Z,22.05
2023-05-23T16:55:42.289Z,22.03
2023-05-23T16:58:08.861Z,22.03
2023-05-23T17:00:35.294Z,22.01
2023-05-23T17:03:02.370Z,22.01
2023-05-23T17:05:28.941Z,22.00
2023-05-23T17:07:55.396Z,21.96
2023-05-23T17:10:23.682Z,21.92
2023-05-23T17:12:50.184Z,21.90
2023-05-23T17:15:18.352Z,21.87
2023-05-23T17:17:44.902Z,21.84
2023-05-23T17:20:11.968Z,21.81
2023-05-23T17:22:38.489Z,21.79
2023-05-23T17:25:06.455Z,21.76
2023-05-23T17:27:33.746Z,21.75
2023-05-23T17:30:00.359Z,21.71
2023-05-23T17:32:28.088Z,21.68
2023-05-23T17:34:54.547Z,21.65
2023-05-23T17:37:21.190Z,21.61
2023-05-23T17:39:50.708Z,21.57
2023-05-23T17:42:20.390Z,21.55
2023-05-23T17:44:47.034Z,21.51
2023-05-23T17:47:14.082Z,21.51
2023-05-23T17:49:41.798Z,21.48
2023-05-23T17:52:09.971Z,21.47
2023-05-23T17:54:37.756Z,21.45
2023-05-23T17:57:05.328Z,21.42
2023-05-23T17:59:32.952Z,21.39
2023-05-23T18:02:00.480Z,21.36
2023-05-23T18:04:26.958Z,21.32
2023-05-23T18:06:53.666Z,21.27
2023-05-23T18:09:20.616Z,21.23
2023-05-23T18:11:47.302Z,21.21
2023-05-23T18:14:13.732Z,21.16
2023-05-23T18:16:40.389Z,21.12
2023-05-23T18:19:06.884Z,21.08
2023-05-23T18:21:34.940Z,21.05
2023-05-23T18:24:02.986Z,21.03
2023-05-23T18:26:29.553Z,21.02
2023-05-23T18:28:56.068Z,21.00
2023-05-23T18:31:22.545Z,20.97
2023-05-23T18:33:51.445Z,20.93
2023-05-23T18:36:17.988Z,20.93
2023-05-23T18:38:45.803Z,20.90
2023-05-23T18:41:14.714Z,20.89
2023-05-23T18:43:41.645Z,20.85
2023-05-23T18:46:08.084Z,20.83
2023-05-23T18:48:35.939Z,20.78
2023-05-23T18:51:02.825Z,20.74
2023-05-23T18:53:29.347Z,20.71
2023-05-23T18:55:55.895Z,20.66
2023-05-23T18:58:22.321Z,20.65
2023-05-23T19:00:49.033Z,20.61
2023-05-23T19:03:16.748Z,20.58
2023-05-23T19:05:43.282Z,20.55
2023-05-23T19:08:09.709Z,20.52
2023-05-23T19:10:36.418Z,20.49
2023-05-23T19:13:03.732Z,20.47
2023-05-23T19:15:30.359Z,20.45
2023-05-23T19:17:57.018Z,20.41
2023-05-23T19:20:23.705Z,20.39
2023-05-23T19:22:51.728Z,20.36
2023-05-23T19:25:19.083Z,20.32
2023-05-23T19:27:45.630Z,20.28
2023-05-23T19:30:12.246Z,20.22
2023-05-23T19:32:38.771Z,20.18
2023-05-23T19:35:08.260Z,20.12
2023-05-23T19:37:34.755Z,20.08
2023-05-23T19:40:01.749Z,20.02
2023-05-23T19:42:28.309Z,19.97
2023-05-23T19:44:54.780Z,19.93
2023-05-23T19:47:21.145Z,19.88
2023-05-23T19:49:47.768Z,19.83
2023-05-23T19:52:14.514Z,19.79
2023-05-23T19:54:41.022Z,19.72
2023-05-23T19:57:07.761Z,19.65
2023-05-23T19:59:34.243Z,19.59
2023-05-23T20:02:00.980Z,19.52
2023-05-23T20:04:29.374Z,19.45
2023-05-23T20:06:56.140Z,19.41
2023-05-23T20:09:23.500Z,19.35
2023-05-23T20:11:50.296Z,19.30
2023-05-23T20:14:16.669Z,19.24
2023-05-23T20:16:43.337Z,19.19
2023-05-23T20:19:10.207Z,19.15
2023-05-23T20:21:36.852Z,19.11
2023-05-23T20:24:03.389Z,19.10
2023-05-23T20:26:29.809Z,19.06
2023-05-23T20:28:56.202Z,19.03
2023-05-23T20:31:22.924Z,18.98
2023-05-23T20:33:49.823Z,18.93
2023-05-23T20:36:19.569Z,18.90
2023-05-23T20:38:46.670Z,18.86
2023-05-23T20:41:14.059Z,18.83
2023-05-23T20:43:41.026Z,18.83
2023-05-23T20:46:09.356Z,18.82
2023-05-23T20:48:35.983Z,18.81
2023-05-23T20:51:05.542Z,18.81
2023-05-23T20:53:32.196Z,18.79
2023-05-23T20:55:58.984Z,18.77
2023-05-23T20:58:25.406Z,18.75
2023-05-23T21:00:52.410Z,18.73
2023-05-23T21:03:19.427Z,18.69
2023-05-23T21:05:46.080Z,18.69
2023-05-23T21:08:12.472Z,18.67
2023-05-23T21:10:38.919Z,18.65
2023-05-23T21:13:05.526Z,18.63
2023-05-23T21:15:32.158Z,18.60
2023-05-23T21:17:58.908Z,18.59
2023-05-23T21:20:26.186Z,18.56
2023-05-23T21:22:52.619Z,18.54
2023-05-23T21:25:19.071Z,18.50
2023-05-23T21:27:45.599Z,18.47
2023-05-23T21:30:12.718Z,18.41
2023-05-23T21:32:39.129Z,18.35
2023-05-23T21:35:06.315Z,18.29
2023-05-23T21:37:32.948Z,18.21
2023-05-23T21:39:59.301Z,18.17
2023-05-23T21:42:26.051Z,18.12
2023-05-23T21:44:52.821Z,18.07
2023-05-23T21:47:21.426Z,18.02
2023-05-23T21:49:48.121Z,18.01
2023-05-23T21:52:14.888Z,18.01
2023-05-23T21:54:41.506Z,17.95
2023-05-23T21:57:07.876Z,17.91
2023-05-23T21:59:34.227Z,17.89
2023-05-23T22:02:01.022Z,17.86
2023-05-23T22:04:28.167Z,17.84
2023-05-23T22:06:54.617Z,17.82
2023-05-23T22:09:21.135Z,17.81
2023-05-23T22:11:47.796Z,17.78
2023-05-23T22:14:14.419Z,17.75
2023-05-23T22:16:41.005Z,17.73
2023-05-23T22:19:10.065Z,17.69
2023-05-23T22:21:36.763Z,17.68
2023-05-23T22:24:03.651Z,17.63
2023-05-23T22:26:30.422Z,17.60
2023-05-23T22:28:57.057Z,17.56
2023-05-23T22:31:23.879Z,17.51
2023-05-23T22:33:51.183Z,17.46
2023-05-23T22:36:17.607Z,17.41
2023-05-23T22:38:44.162Z,17.35
2023-05-23T22:41:10.920Z,17.29
2023-05-23T22:43:37.636Z,17.26
2023-05-23T22:46:04.180Z,17.21
2023-05-23T22:48:33.637Z,17.16
2023-05-23T22:51:03.633Z,17.12
2023-05-23T22:53:30.407Z,17.08
2023-05-23T22:55:56.976Z,17.06
2023-05-23T22:58:23.651Z,17.03
2023-05-23T23:00:50.476Z,17.00
2023-05-23T23:03:17.029Z,16.96
2023-05-23T23:05:44.550Z,16.92
2023-05-23T23:08:11.910Z,16.89
2023-05-23T23:10:38.455Z,16.84
2023-05-23T23:13:05.057Z,16.80
2023-05-23T23:15:33.689Z,16.76
2023-05-23T23:18:00.422Z,16.70
2023-05-23T23:20:27.566Z,16.66
2023-05-23T23:22:54.010Z,16.61
2023-05-23T23:25:20.755Z,16.58
2023-05-23T23:27:47.189Z,16.56
2023-05-23T23:30:13.741Z,16.54
2023-05-23T23:32:40.444Z,16.52
2023-05-23T23:35:07.396Z,16.50
2023-05-23T23:37:34.026Z,16.47
2023-05-23T23:40:00.559Z,16.45
2023-05-23T23:42:28.166Z,16.40
2023-05-23T23:44:54.686Z,16.38
2023-05-23T23:47:21.102Z,16.35
2023-05-23T23:49:48.065Z,16.32
2023-05-23T23:52:14.880Z,16.30
2023-05-23T23:54:41.482Z,16.27
2023-05-23T23:57:13.463Z,16.22
2023-05-23T23:59:41.419Z,16.19
